sensor_id;sensor_type;location;lat;lon;timestamp;temperature;humidity
10123;DHT22;5101;49.038;8.710;2024-01-15T00:00:40;-0.60;99.90
10123;DHT22;5101;49.038;8.710;2024-01-15T00:03:06;-0.60;99.90
10123;DHT22;5101;49.038;8.710;2024-01-15T00:05:31;-0.60;99.90
10123;DHT22;5101;49.038;8.710;2024-01-15T00:07:57;-0.60;99.90
10123;DHT22;5101;49.038;8.710;2024-01-15T00:10:23;-0.50;99.90
10123;DHT22;5101;49.038;8.710;2024-01-15T00:12:48;-0.50;99.90
10123;DHT22;5101;49.038;8.710;2024-01-15T00:15:14;-0.50;99.90
10123;DHT22;5101;49.038;8.710;2024-01-15T00:17:40;-0.50;99.90
10123;DHT22;5101;49.038;8.710;2024-01-15T00:20:06;-0.50;99.90
10123;DHT22;5101;49.038;8.710;2024-01-15T00:22:32;-0.50;99.90
10123;DHT22;5101;49.038;8.710;2024-01-15T00:24:58;-0.50;99.90
10123;DHT22;5101;49.038;8.710;2024-01-15T00:27:23;-0.50;99.90
10123;DHT22;5101;49.038;8.710;2024-01-15T00:29:49;-0.50;99.90
10123;DHT22;5101;49.038;8.710;2024-01-15T00:32:16;-0.50;99.90
10123;DHT22;5101;49.038;8.710;2024-01-15T00:34:41;-0.50;99.90
10123;DHT22;5101;49.038;8.710;2024-01-15T00:37:07;-0.50;99.90
10123;DHT22;5101;49.038;8.710;2024-01-15T00:39:33;-0.50;99.90
10123;DHT22;5101;49.038;8.710;2024-01-15T00:41:58;-0.50;99.90
10123;DHT22;5101;49.038;8.710;2024-01-15T00:44:24;-0.50;99.90
10123;DHT22;5101;49.038;8.710;2024-01-15T00:46:49;-0.50;99.90
10123;DHT22;5101;49.038;8.710;2024-01-15T00:49:15;-0.50;99.90
10123;DHT22;5101;49.038;8.710;2024-01-15T00:51:41;-0.50;99.90
10123;DHT22;5101;49.038;8.710;2024-01-15T00:54:07;-0.50;99.90
10123;DHT22;5101;49.038;8.710;2024-01-15T00:56:32;-0.50;99.90
10123;DHT22;5101;49.038;8.710;2024-01-15T00:58:58;-0.50;99.90
10123;DHT22;5101;49.038;8.710;2024-01-15T01:01:24;-0.40;99.90
10123;DHT22;5101;49.038;8.710;2024-01-15T01:03:49;-0.30;99.90
10123;DHT22;5101;49.038;8.710;2024-01-15T01:06:15;-0.20;99.90
10123;DHT22;5101;49.038;8.710;2024-01-15T01:08:40;-0.30;99.90
10123;DHT22;5101;49.038;8.710;2024-01-15T01:11:06;-0.10;99.90
10123;DHT22;5101;49.038;8.710;2024-01-15T01:13:35;-0.10;99.90
10123;DHT22;5101;49.038;8.710;2024-01-15T01:16:00;-0.20;99.90
10123;DHT22;5101;49.038;8.710;2024-01-15T01:18:25;-0.20;99.90
10123;DHT22;5101;49.038;8.710;2024-01-15T01:20:51;-0.30;99.90
10123;DHT22;5101;49.038;8.710;2024-01-15T01:23:16;-0.30;99.90
10123;DHT22;5101;49.038;8.710;2024-01-15T01:25:42;-0.30;99.90
10123;DHT22;5101;49.038;8.710;2024-01-15T01:28:07;-0.30;99.90
10123;DHT22;5101;49.038;8.710;2024-01-15T01:30:33;-0.40;99.90
10123;DHT22;5101;49.038;8.710;2024-01-15T01:32:58;-0.40;99.90
10123;DHT22;5101;49.038;8.710;2024-01-15T01:35:24;-0.40;99.90
10123;DHT22;5101;49.038;8.710;2024-01-15T01:37:50;-0.30;99.90
10123;DHT22;5101;49.038;8.710;2024-01-15T01:40:15;-0.40;99.90
10123;DHT22;5101;49.038;8.710;2024-01-15T01:42:41;-0.40;99.90
10123;DHT22;5101;49.038;8.710;2024-01-15T01:45:06;-0.40;99.90
10123;DHT22;5101;49.038;8.710;2024-01-15T01:47:32;-0.40;99.90
10123;DHT22;5101;49.038;8.710;2024-01-15T01:49:58;-0.40;99.90
10123;DHT22;5101;49.038;8.710;2024-01-15T01:52:23;-0.20;99.90
10123;DHT22;5101;49.038;8.710;2024-01-15T01:54:49;-0.30;99.90
10123;DHT22;5101;49.038;8.710;2024-01-15T01:57:16;-0.30;99.90
10123;DHT22;5101;49.038;8.710;2024-01-15T01:59:43;-0.30;99.90
10123;DHT22;5101;49.038;8.710;2024-01-15T02:02:09;-0.30;99.90
10123;DHT22;5101;49.038;8.710;2024-01-15T02:04:36;-0.20;99.90
10123;DHT22;5101;49.038;8.710;2024-01-15T02:07:02;-0.10;99.90
10123;DHT22;5101;49.038;8.710;2024-01-15T02:09:28;-0.10;99.90
10123;DHT22;5101;49.038;8.710;2024-01-15T02:11:53;0.00;99.90
10123;DHT22;5101;49.038;8.710;2024-01-15T02:14:19;0.00;99.90
10123;DHT22;5101;49.038;8.710;2024-01-15T02:16:44;0.10;99.90
10123;DHT22;5101;49.038;8.710;2024-01-15T02:19:16;0.20;99.90
10123;DHT22;5101;49.038;8.710;2024-01-15T02:21:43;0.20;99.90
10123;DHT22;5101;49.038;8.710;2024-01-15T02:24:09;0.20;99.90
10123;DHT22;5101;49.038;8.710;2024-01-15T02:26:34;0.10;99.90
10123;DHT22;5101;49.038;8.710;2024-01-15T02:29:01;0.10;99.90
10123;DHT22;5101;49.038;8.710;2024-01-15T02:31:27;0.00;99.90
10123;DHT22;5101;49.038;8.710;2024-01-15T02:33:54;0.00;99.90
10123;DHT22;5101;49.038;8.710;2024-01-15T02:36:19;-0.10;99.90
10123;DHT22;5101;49.038;8.710;2024-01-15T02:38:45;-0.10;99.90
10123;DHT22;5101;49.038;8.710;2024-01-15T02:41:10;-0.10;99.90
10123;DHT22;5101;49.038;8.710;2024-01-15T02:43:39;-0.10;99.90
10123;DHT22;5101;49.038;8.710;2024-01-15T02:46:05;-0.10;99.90
10123;DHT22;5101;49.038;8.710;2024-01-15T02:48:30;-0.20;99.90
10123;DHT22;5101;49.038;8.710;2024-01-15T02:50:56;-0.20;99.90
10123;DHT22;5101;49.038;8.710;2024-01-15T02:53:21;-0.20;99.90
10123;DHT22;5101;49.038;8.710;2024-01-15T02:55:47;-0.20;99.90
10123;DHT22;5101;49.038;8.710;2024-01-15T02:58:12;-0.20;99.90
10123;DHT22;5101;49.038;8.710;2024-01-15T03:00:38;-0.20;99.90
10123;DHT22;5101;49.038;8.710;2024-01-15T03:03:03;-0.10;99.90
10123;DHT22;5101;49.038;8.710;2024-01-15T03:05:29;-0.10;99.90
10123;DHT22;5101;49.038;8.710;2024-01-15T03:07:54;-0.10;99.90
10123;DHT22;5101;49.038;8.710;2024-01-15T03:10:20;-0.10;99.90
10123;DHT22;5101;49.038;8.710;2024-01-15T03:12:45;-0.10;99.90
10123;DHT22;5101;49.038;8.710;2024-01-15T03:15:11;-0.10;99.90
10123;DHT22;5101;49.038;8.710;2024-01-15T03:17:36;-0.10;99.90
10123;DHT22;5101;49.038;8.710;2024-01-15T03:20:02;-0.10;99.90
10123;DHT22;5101;49.038;8.710;2024-01-15T03:22:28;0.00;99.90
10123;DHT22;5101;49.038;8.710;2024-01-15T03:24:54;-0.10;99.90
10123;DHT22;5101;49.038;8.710;2024-01-15T03:27:20;-0.20;99.90
10123;DHT22;5101;49.038;8.710;2024-01-15T03:29:45;-0.10;99.90
10123;DHT22;5101;49.038;8.710;2024-01-15T03:32:11;-0.10;99.90
10123;DHT22;5101;49.038;8.710;2024-01-15T03:34:36;0.00;99.90
10123;DHT22;5101;49.038;8.710;2024-01-15T03:37:02;0.20;99.90
10123;DHT22;5101;49.038;8.710;2024-01-15T03:39:27;0.10;99.90
10123;DHT22;5101;49.038;8.710;2024-01-15T03:41:53;0.10;99.90
10123;DHT22;5101;49.038;8.710;2024-01-15T03:44:18;0.10;99.90
10123;DHT22;5101;49.038;8.710;2024-01-15T03:46:44;0.00;99.90
10123;DHT22;5101;49.038;8.710;2024-01-15T03:49:09;0.00;99.90
10123;DHT22;5101;49.038;8.710;2024-01-15T03:51:35;0.00;99.90
10123;DHT22;5101;49.038;8.710;2024-01-15T03:54:00;0.00;99.90
10123;DHT22;5101;49.038;8.710;2024-01-15T03:56:26;0.00;99.90
10123;DHT22;5101;49.038;8.710;2024-01-15T03:58:51;-0.10;99.90
10123;DHT22;5101;49.038;8.710;2024-01-15T04:01:17;-0.10;99.90
10123;DHT22;5101;49.038;8.710;2024-01-15T04:03:42;-0.10;99.90
10123;DHT22;5101;49.038;8.710;2024-01-15T04:06:08;-0.10;99.90
10123;DHT22;5101;49.038;8.710;2024-01-15T04:08:33;-0.10;99.90
10123;DHT22;5101;49.038;8.710;2024-01-15T04:10:59;-0.10;99.90
10123;DHT22;5101;49.038;8.710;2024-01-15T04:13:25;-0.10;99.90
10123;DHT22;5101;49.038;8.710;2024-01-15T04:15:50;-0.10;99.90
10123;DHT22;5101;49.038;8.710;2024-01-15T04:18:16;-0.10;99.90
10123;DHT22;5101;49.038;8.710;2024-01-15T04:20:42;-0.10;99.90
10123;DHT22;5101;49.038;8.710;2024-01-15T04:23:08;-0.10;99.90
10123;DHT22;5101;49.038;8.710;2024-01-15T04:25:33;-0.10;99.90
10123;DHT22;5101;49.038;8.710;2024-01-15T04:27:59;-0.10;99.90
10123;DHT22;5101;49.038;8.710;2024-01-15T04:30:24;-0.10;99.90
10123;DHT22;5101;49.038;8.710;2024-01-15T04:32:50;0.10;99.90
10123;DHT22;5101;49.038;8.710;2024-01-15T04:35:15;0.00;99.90
10123;DHT22;5101;49.038;8.710;2024-01-15T04:37:41;0.00;99.90
10123;DHT22;5101;49.038;8.710;2024-01-15T04:40:07;0.00;99.90
10123;DHT22;5101;49.038;8.710;2024-01-15T04:42:33;0.10;99.90
10123;DHT22;5101;49.038;8.710;2024-01-15T04:44:59;0.10;99.90
10123;DHT22;5101;49.038;8.710;2024-01-15T04:47:24;0.10;99.90
10123;DHT22;5101;49.038;8.710;2024-01-15T04:49:50;0.10;99.90
10123;DHT22;5101;49.038;8.710;2024-01-15T04:52:16;0.10;99.90
10123;DHT22;5101;49.038;8.710;2024-01-15T04:54:41;0.10;99.90
10123;DHT22;5101;49.038;8.710;2024-01-15T04:57:07;0.00;99.90
10123;DHT22;5101;49.038;8.710;2024-01-15T04:59:32;0.00;99.90
10123;DHT22;5101;49.038;8.710;2024-01-15T05:01:58;0.00;99.90
10123;DHT22;5101;49.038;8.710;2024-01-15T05:04:23;0.10;99.90
10123;DHT22;5101;49.038;8.710;2024-01-15T05:06:50;0.10;99.90
10123;DHT22;5101;49.038;8.710;2024-01-15T05:09:15;0.10;99.90
10123;DHT22;5101;49.038;8.710;2024-01-15T05:11:41;0.10;99.90
10123;DHT22;5101;49.038;8.710;2024-01-15T05:14:07;0.10;99.90
10123;DHT22;5101;49.038;8.710;2024-01-15T05:16:32;0.10;99.90
10123;DHT22;5101;49.038;8.710;2024-01-15T05:18:58;0.20;99.90
10123;DHT22;5101;49.038;8.710;2024-01-15T05:21:23;0.20;99.90
10123;DHT22;5101;49.038;8.710;2024-01-15T05:23:48;0.20;99.90
10123;DHT22;5101;49.038;8.710;2024-01-15T05:26:14;0.20;99.90
10123;DHT22;5101;49.038;8.710;2024-01-15T05:28:43;0.20;99.90
10123;DHT22;5101;49.038;8.710;2024-01-15T05:31:09;0.30;99.90
10123;DHT22;5101;49.038;8.710;2024-01-15T05:33:34;0.30;99.90
10123;DHT22;5101;49.038;8.710;2024-01-15T05:36:00;0.30;99.90
10123;DHT22;5101;49.038;8.710;2024-01-15T05:38:25;0.30;99.90
10123;DHT22;5101;49.038;8.710;2024-01-15T05:40:51;0.30;99.90
10123;DHT22;5101;49.038;8.710;2024-01-15T05:43:16;0.40;99.90
10123;DHT22;5101;49.038;8.710;2024-01-15T05:45:45;0.30;99.90
10123;DHT22;5101;49.038;8.710;2024-01-15T05:48:11;0.40;99.90
10123;DHT22;5101;49.038;8.710;2024-01-15T05:50:37;0.40;99.90
10123;DHT22;5101;49.038;8.710;2024-01-15T05:53:03;0.40;99.90
10123;DHT22;5101;49.038;8.710;2024-01-15T05:55:29;0.40;99.90
10123;DHT22;5101;49.038;8.710;2024-01-15T05:57:54;0.40;99.90
10123;DHT22;5101;49.038;8.710;2024-01-15T06:00:20;0.40;99.90
10123;DHT22;5101;49.038;8.710;2024-01-15T06:02:45;0.50;99.90
10123;DHT22;5101;49.038;8.710;2024-01-15T06:05:11;0.60;99.90
10123;DHT22;5101;49.038;8.710;2024-01-15T06:07:36;0.60;99.90
10123;DHT22;5101;49.038;8.710;2024-01-15T06:10:02;0.60;99.90
10123;DHT22;5101;49.038;8.710;2024-01-15T06:12:28;0.60;99.90
10123;DHT22;5101;49.038;8.710;2024-01-15T06:14:54;0.60;99.90
10123;DHT22;5101;49.038;8.710;2024-01-15T06:17:19;0.60;99.90
10123;DHT22;5101;49.038;8.710;2024-01-15T06:19:45;0.60;99.90
10123;DHT22;5101;49.038;8.710;2024-01-15T06:22:10;0.70;99.90
10123;DHT22;5101;49.038;8.710;2024-01-15T06:24:36;0.70;99.90
10123;DHT22;5101;49.038;8.710;2024-01-15T06:27:01;0.70;99.90
10123;DHT22;5101;49.038;8.710;2024-01-15T06:29:27;0.70;99.90
10123;DHT22;5101;49.038;8.710;2024-01-15T06:31:53;0.70;99.90
10123;DHT22;5101;49.038;8.710;2024-01-15T06:34:18;0.70;99.90
10123;DHT22;5101;49.038;8.710;2024-01-15T06:36:44;0.70;99.90
10123;DHT22;5101;49.038;8.710;2024-01-15T06:39:10;0.70;99.90
10123;DHT22;5101;49.038;8.710;2024-01-15T06:41:35;0.70;99.90
10123;DHT22;5101;49.038;8.710;2024-01-15T06:46:36;0.70;99.90
10123;DHT22;5101;49.038;8.710;2024-01-15T06:49:01;0.70;99.90
10123;DHT22;5101;49.038;8.710;2024-01-15T06:51:27;0.70;99.90
10123;DHT22;5101;49.038;8.710;2024-01-15T06:53:53;0.70;99.90
10123;DHT22;5101;49.038;8.710;2024-01-15T06:56:18;0.70;99.90
10123;DHT22;5101;49.038;8.710;2024-01-15T06:58:44;0.70;99.90
10123;DHT22;5101;49.038;8.710;2024-01-15T07:01:09;0.70;99.90
10123;DHT22;5101;49.038;8.710;2024-01-15T07:03:35;0.70;99.90
10123;DHT22;5101;49.038;8.710;2024-01-15T07:06:01;0.70;99.90
10123;DHT22;5101;49.038;8.710;2024-01-15T07:08:26;0.70;99.90
10123;DHT22;5101;49.038;8.710;2024-01-15T07:10:52;0.70;99.90
10123;DHT22;5101;49.038;8.710;2024-01-15T07:13:17;0.70;99.90
10123;DHT22;5101;49.038;8.710;2024-01-15T07:15:43;0.70;99.90
10123;DHT22;5101;49.038;8.710;2024-01-15T07:18:08;0.70;99.90
10123;DHT22;5101;49.038;8.710;2024-01-15T07:20:34;0.60;99.90
10123;DHT22;5101;49.038;8.710;2024-01-15T07:22:59;0.60;99.90
10123;DHT22;5101;49.038;8.710;2024-01-15T07:25:25;0.60;99.90
10123;DHT22;5101;49.038;8.710;2024-01-15T07:27:51;0.60;99.90
10123;DHT22;5101;49.038;8.710;2024-01-15T07:30:19;0.60;99.90
10123;DHT22;5101;49.038;8.710;2024-01-15T07:32:44;0.60;99.90
10123;DHT22;5101;49.038;8.710;2024-01-15T07:35:10;0.60;99.90
10123;DHT22;5101;49.038;8.710;2024-01-15T07:37:35;0.60;99.90
10123;DHT22;5101;49.038;8.710;2024-01-15T07:40:01;0.60;99.90
10123;DHT22;5101;49.038;8.710;2024-01-15T07:42:26;0.60;99.90
10123;DHT22;5101;49.038;8.710;2024-01-15T07:44:52;0.60;99.90
10123;DHT22;5101;49.038;8.710;2024-01-15T07:47:17;0.60;99.90
10123;DHT22;5101;49.038;8.710;2024-01-15T07:49:43;0.60;99.90
10123;DHT22;5101;49.038;8.710;2024-01-15T07:52:09;0.60;99.90
10123;DHT22;5101;49.038;8.710;2024-01-15T07:54:35;0.60;99.90
10123;DHT22;5101;49.038;8.710;2024-01-15T07:57:02;0.60;99.90
10123;DHT22;5101;49.038;8.710;2024-01-15T07:59:30;0.60;99.90
10123;DHT22;5101;49.038;8.710;2024-01-15T08:01:58;0.60;99.90
10123;DHT22;5101;49.038;8.710;2024-01-15T08:04:23;0.70;99.90
10123;DHT22;5101;49.038;8.710;2024-01-15T08:06:49;0.70;99.90
10123;DHT22;5101;49.038;8.710;2024-01-15T08:09:14;0.70;99.90
10123;DHT22;5101;49.038;8.710;2024-01-15T08:11:40;0.70;99.90
10123;DHT22;5101;49.038;8.710;2024-01-15T08:14:07;0.80;99.90
10123;DHT22;5101;49.038;8.710;2024-01-15T08:16:32;0.80;99.90
10123;DHT22;5101;49.038;8.710;2024-01-15T08:18:58;0.70;99.90
10123;DHT22;5101;49.038;8.710;2024-01-15T08:21:24;0.80;99.90
10123;DHT22;5101;49.038;8.710;2024-01-15T08:23:49;0.80;99.90
10123;DHT22;5101;49.038;8.710;2024-01-15T08:26:15;0.80;99.90
10123;DHT22;5101;49.038;8.710;2024-01-15T08:28:40;0.80;99.90
10123;DHT22;5101;49.038;8.710;2024-01-15T08:31:06;0.80;99.90
10123;DHT22;5101;49.038;8.710;2024-01-15T08:33:31;0.90;99.90
10123;DHT22;5101;49.038;8.710;2024-01-15T08:35:57;0.90;99.90
10123;DHT22;5101;49.038;8.710;2024-01-15T08:38:22;0.90;99.90
10123;DHT22;5101;49.038;8.710;2024-01-15T08:40:49;0.90;99.90
10123;DHT22;5101;49.038;8.710;2024-01-15T08:43:15;0.90;99.90
10123;DHT22;5101;49.038;8.710;2024-01-15T08:45:40;1.00;99.90
10123;DHT22;5101;49.038;8.710;2024-01-15T08:48:06;1.00;99.90
10123;DHT22;5101;49.038;8.710;2024-01-15T08:50:32;1.00;99.90
10123;DHT22;5101;49.038;8.710;2024-01-15T08:52:58;1.10;99.90
10123;DHT22;5101;49.038;8.710;2024-01-15T08:55:24;1.10;99.90
10123;DHT22;5101;49.038;8.710;2024-01-15T08:57:50;1.10;99.90
10123;DHT22;5101;49.038;8.710;2024-01-15T09:00:16;1.10;99.90
10123;DHT22;5101;49.038;8.710;2024-01-15T09:02:42;1.10;99.90
10123;DHT22;5101;49.038;8.710;2024-01-15T09:05:08;1.20;99.90
10123;DHT22;5101;49.038;8.710;2024-01-15T09:07:34;1.20;99.90
10123;DHT22;5101;49.038;8.710;2024-01-15T09:09:59;1.30;99.90
10123;DHT22;5101;49.038;8.710;2024-01-15T09:12:28;1.30;99.90
10123;DHT22;5101;49.038;8.710;2024-01-15T09:14:53;1.30;99.90
10123;DHT22;5101;49.038;8.710;2024-01-15T09:17:19;1.40;99.90
10123;DHT22;5101;49.038;8.710;2024-01-15T09:19:45;1.40;99.90
10123;DHT22;5101;49.038;8.710;2024-01-15T09:22:12;1.40;99.90
10123;DHT22;5101;49.038;8.710;2024-01-15T09:24:40;1.40;99.90
10123;DHT22;5101;49.038;8.710;2024-01-15T09:27:06;1.40;99.90
10123;DHT22;5101;49.038;8.710;2024-01-15T09:29:31;1.50;99.90
10123;DHT22;5101;49.038;8.710;2024-01-15T09:31:57;1.50;99.90
10123;DHT22;5101;49.038;8.710;2024-01-15T09:34:22;1.60;99.90
10123;DHT22;5101;49.038;8.710;2024-01-15T09:36:48;1.50;99.90
10123;DHT22;5101;49.038;8.710;2024-01-15T09:39:14;1.60;99.90
10123;DHT22;5101;49.038;8.710;2024-01-15T09:41:41;1.60;99.90
10123;DHT22;5101;49.038;8.710;2024-01-15T09:44:07;1.60;99.90
10123;DHT22;5101;49.038;8.710;2024-01-15T09:46:34;1.60;99.90
10123;DHT22;5101;49.038;8.710;2024-01-15T09:49:00;1.70;99.90
10123;DHT22;5101;49.038;8.710;2024-01-15T09:51:28;1.70;99.90
10123;DHT22;5101;49.038;8.710;2024-01-15T09:53:57;1.70;99.90
10123;DHT22;5101;49.038;8.710;2024-01-15T09:56:23;1.70;99.90
10123;DHT22;5101;49.038;8.710;2024-01-15T09:58:50;1.70;99.90
10123;DHT22;5101;49.038;8.710;2024-01-15T10:01:17;1.70;99.90
10123;DHT22;5101;49.038;8.710;2024-01-15T10:03:42;1.70;99.90
10123;DHT22;5101;49.038;8.710;2024-01-15T10:06:09;1.70;99.90
10123;DHT22;5101;49.038;8.710;2024-01-15T10:08:37;1.70;99.90
10123;DHT22;5101;49.038;8.710;2024-01-15T10:11:02;1.70;99.90
10123;DHT22;5101;49.038;8.710;2024-01-15T10:13:30;1.70;99.90
10123;DHT22;5101;49.038;8.710;2024-01-15T10:15:56;1.70;99.90
10123;DHT22;5101;49.038;8.710;2024-01-15T10:18:21;1.70;99.90
10123;DHT22;5101;49.038;8.710;2024-01-15T10:20:47;1.70;99.90
10123;DHT22;5101;49.038;8.710;2024-01-15T10:23:14;1.80;99.90
10123;DHT22;5101;49.038;8.710;2024-01-15T10:25:42;1.80;99.90
10123;DHT22;5101;49.038;8.710;2024-01-15T10:28:07;1.80;99.90
10123;DHT22;5101;49.038;8.710;2024-01-15T10:30:34;1.80;99.90
10123;DHT22;5101;49.038;8.710;2024-01-15T10:33:01;1.70;99.90
10123;DHT22;5101;49.038;8.710;2024-01-15T10:35:29;1.70;99.90
10123;DHT22;5101;49.038;8.710;2024-01-15T10:37:55;1.70;99.90
10123;DHT22;5101;49.038;8.710;2024-01-15T10:40:20;1.80;99.90
10123;DHT22;5101;49.038;8.710;2024-01-15T10:42:49;1.80;99.90
10123;DHT22;5101;49.038;8.710;2024-01-15T10:45:14;1.80;99.90
10123;DHT22;5101;49.038;8.710;2024-01-15T10:47:43;1.80;99.90
10123;DHT22;5101;49.038;8.710;2024-01-15T10:50:10;1.70;99.90
10123;DHT22;5101;49.038;8.710;2024-01-15T10:52:37;1.70;99.90
10123;DHT22;5101;49.038;8.710;2024-01-15T10:55:03;1.70;99.90
10123;DHT22;5101;49.038;8.710;2024-01-15T10:57:32;1.70;99.90
10123;DHT22;5101;49.038;8.710;2024-01-15T10:59:58;1.70;99.90
10123;DHT22;5101;49.038;8.710;2024-01-15T11:02:25;1.70;99.90
10123;DHT22;5101;49.038;8.710;2024-01-15T11:04:51;1.70;99.90
10123;DHT22;5101;49.038;8.710;2024-01-15T11:07:17;1.70;99.90
10123;DHT22;5101;49.038;8.710;2024-01-15T11:09:43;1.70;99.90
10123;DHT22;5101;49.038;8.710;2024-01-15T11:12:13;1.70;99.90
10123;DHT22;5101;49.038;8.710;2024-01-15T11:14:48;1.60;99.90
10123;DHT22;5101;49.038;8.710;2024-01-15T11:17:14;1.60;99.90
10123;DHT22;5101;49.038;8.710;2024-01-15T11:22:10;1.60;99.90
10123;DHT22;5101;49.038;8.710;2024-01-15T11:24:40;1.60;99.90
10123;DHT22;5101;49.038;8.710;2024-01-15T11:27:07;1.60;99.90
10123;DHT22;5101;49.038;8.710;2024-01-15T11:29:35;1.60;99.90
10123;DHT22;5101;49.038;8.710;2024-01-15T11:32:05;1.60;99.90
10123;DHT22;5101;49.038;8.710;2024-01-15T11:34:59;1.60;99.90
10123;DHT22;5101;49.038;8.710;2024-01-15T11:37:56;1.50;99.90
10123;DHT22;5101;49.038;8.710;2024-01-15T11:40:18;1.60;99.90
10123;DHT22;5101;49.038;8.710;2024-01-15T11:42:45;1.50;99.90
10123;DHT22;5101;49.038;8.710;2024-01-15T11:45:10;1.50;99.90
10123;DHT22;5101;49.038;8.710;2024-01-15T11:50:33;1.50;99.90
10123;DHT22;5101;49.038;8.710;2024-01-15T11:53:01;1.50;99.90
10123;DHT22;5101;49.038;8.710;2024-01-15T11:55:34;1.50;99.90
10123;DHT22;5101;49.038;8.710;2024-01-15T11:58:02;1.50;99.90
10123;DHT22;5101;49.038;8.710;2024-01-15T12:00:32;1.50;99.90
10123;DHT22;5101;49.038;8.710;2024-01-15T12:02:58;1.50;99.90
10123;DHT22;5101;49.038;8.710;2024-01-15T12:05:24;1.50;99.90
10123;DHT22;5101;49.038;8.710;2024-01-15T12:07:50;1.50;99.90
10123;DHT22;5101;49.038;8.710;2024-01-15T12:10:17;1.50;99.90
10123;DHT22;5101;49.038;8.710;2024-01-15T12:15:50;1.80;99.90
10123;DHT22;5101;49.038;8.710;2024-01-15T12:18:17;1.70;99.90
10123;DHT22;5101;49.038;8.710;2024-01-15T12:20:44;1.70;99.90
10123;DHT22;5101;49.038;8.710;2024-01-15T12:23:12;1.80;99.90
10123;DHT22;5101;49.038;8.710;2024-01-15T12:25:38;1.70;99.90
10123;DHT22;5101;49.038;8.710;2024-01-15T12:28:05;1.70;99.90
10123;DHT22;5101;49.038;8.710;2024-01-15T12:30:32;1.60;99.90
10123;DHT22;5101;49.038;8.710;2024-01-15T12:32:58;1.60;99.90
10123;DHT22;5101;49.038;8.710;2024-01-15T12:35:24;1.60;99.90
10123;DHT22;5101;49.038;8.710;2024-01-15T12:37:51;1.60;99.90
10123;DHT22;5101;49.038;8.710;2024-01-15T12:40:22;1.60;99.90
10123;DHT22;5101;49.038;8.710;2024-01-15T12:42:48;1.70;99.90
10123;DHT22;5101;49.038;8.710;2024-01-15T12:45:14;1.70;99.90
10123;DHT22;5101;49.038;8.710;2024-01-15T12:47:42;1.70;99.90
10123;DHT22;5101;49.038;8.710;2024-01-15T12:50:09;1.70;99.90
10123;DHT22;5101;49.038;8.710;2024-01-15T12:52:36;1.70;99.90
10123;DHT22;5101;49.038;8.710;2024-01-15T12:55:07;1.70;99.90
10123;DHT22;5101;49.038;8.710;2024-01-15T12:57:34;1.70;99.90
10123;DHT22;5101;49.038;8.710;2024-01-15T13:00:00;1.80;99.90
10123;DHT22;5101;49.038;8.710;2024-01-15T13:02:25;1.80;99.90
10123;DHT22;5101;49.038;8.710;2024-01-15T13:04:51;1.80;99.90
10123;DHT22;5101;49.038;8.710;2024-01-15T13:07:17;1.80;99.90
10123;DHT22;5101;49.038;8.710;2024-01-15T13:09:42;1.80;99.90
10123;DHT22;5101;49.038;8.710;2024-01-15T13:12:08;1.90;99.90
10123;DHT22;5101;49.038;8.710;2024-01-15T13:14:34;1.90;99.90
10123;DHT22;5101;49.038;8.710;2024-01-15T13:17:00;1.90;99.90
10123;DHT22;5101;49.038;8.710;2024-01-15T13:19:25;2.00;99.90
10123;DHT22;5101;49.038;8.710;2024-01-15T13:21:51;2.00;99.90
10123;DHT22;5101;49.038;8.710;2024-01-15T13:24:17;2.00;99.90
10123;DHT22;5101;49.038;8.710;2024-01-15T13:26:43;2.00;99.90
10123;DHT22;5101;49.038;8.710;2024-01-15T13:29:09;2.00;99.90
10123;DHT22;5101;49.038;8.710;2024-01-15T13:31:34;2.00;99.90
10123;DHT22;5101;49.038;8.710;2024-01-15T13:34:00;2.00;99.90
10123;DHT22;5101;49.038;8.710;2024-01-15T13:36:26;2.10;99.90
10123;DHT22;5101;49.038;8.710;2024-01-15T13:38:52;2.00;99.90
10123;DHT22;5101;49.038;8.710;2024-01-15T13:41:19;2.10;99.90
10123;DHT22;5101;49.038;8.710;2024-01-15T13:43:49;2.10;99.90
10123;DHT22;5101;49.038;8.710;2024-01-15T13:46:15;2.10;99.90
10123;DHT22;5101;49.038;8.710;2024-01-15T13:48:42;2.10;99.90
10123;DHT22;5101;49.038;8.710;2024-01-15T13:51:08;2.10;99.90
10123;DHT22;5101;49.038;8.710;2024-01-15T13:53:34;2.10;99.90
10123;DHT22;5101;49.038;8.710;2024-01-15T13:55:59;2.10;99.90
10123;DHT22;5101;49.038;8.710;2024-01-15T13:58:25;2.10;99.90
10123;DHT22;5101;49.038;8.710;2024-01-15T14:00:51;2.10;99.90
10123;DHT22;5101;49.038;8.710;2024-01-15T14:03:17;2.10;99.90
10123;DHT22;5101;49.038;8.710;2024-01-15T14:05:43;2.10;99.90
10123;DHT22;5101;49.038;8.710;2024-01-15T14:08:08;2.10;99.90
10123;DHT22;5101;49.038;8.710;2024-01-15T14:10:34;2.10;99.90
10123;DHT22;5101;49.038;8.710;2024-01-15T14:12:59;2.10;99.90
10123;DHT22;5101;49.038;8.710;2024-01-15T14:15:25;2.10;99.90
10123;DHT22;5101;49.038;8.710;2024-01-15T14:17:50;2.10;99.90
10123;DHT22;5101;49.038;8.710;2024-01-15T14:20:16;2.10;99.90
10123;DHT22;5101;49.038;8.710;2024-01-15T14:22:42;2.20;99.90
10123;DHT22;5101;49.038;8.710;2024-01-15T14:25:08;2.20;99.90
10123;DHT22;5101;49.038;8.710;2024-01-15T14:27:34;2.20;99.90
10123;DHT22;5101;49.038;8.710;2024-01-15T14:29:59;2.20;99.90
10123;DHT22;5101;49.038;8.710;2024-01-15T14:32:25;2.20;99.90
10123;DHT22;5101;49.038;8.710;2024-01-15T14:34:50;2.20;99.90
10123;DHT22;5101;49.038;8.710;2024-01-15T14:37:16;2.10;99.90
10123;DHT22;5101;49.038;8.710;2024-01-15T14:39:41;2.10;99.90
10123;DHT22;5101;49.038;8.710;2024-01-15T14:42:06;2.10;99.90
10123;DHT22;5101;49.038;8.710;2024-01-15T14:44:32;2.10;99.90
10123;DHT22;5101;49.038;8.710;2024-01-15T14:47:00;2.10;99.90
10123;DHT22;5101;49.038;8.710;2024-01-15T14:49:25;2.10;99.90
10123;DHT22;5101;49.038;8.710;2024-01-15T14:51:51;2.10;99.90
10123;DHT22;5101;49.038;8.710;2024-01-15T14:54:16;2.10;99.90
10123;DHT22;5101;49.038;8.710;2024-01-15T14:56:42;2.10;99.90
10123;DHT22;5101;49.038;8.710;2024-01-15T14:59:10;2.10;99.90
10123;DHT22;5101;49.038;8.710;2024-01-15T15:01:36;2.10;99.90
10123;DHT22;5101;49.038;8.710;2024-01-15T15:04:01;2.10;99.90
10123;DHT22;5101;49.038;8.710;2024-01-15T15:06:27;2.10;99.90
10123;DHT22;5101;49.038;8.710;2024-01-15T15:08:54;2.10;99.90
10123;DHT22;5101;49.038;8.710;2024-01-15T15:11:26;2.10;99.90
10123;DHT22;5101;49.038;8.710;2024-01-15T15:13:52;2.20;99.90
10123;DHT22;5101;49.038;8.710;2024-01-15T15:16:17;2.10;99.90
10123;DHT22;5101;49.038;8.710;2024-01-15T15:18:43;2.10;99.90
10123;DHT22;5101;49.038;8.710;2024-01-15T15:21:10;2.10;99.90
10123;DHT22;5101;49.038;8.710;2024-01-15T15:23:35;2.10;99.90
10123;DHT22;5101;49.038;8.710;2024-01-15T15:26:01;2.20;99.90
10123;DHT22;5101;49.038;8.710;2024-01-15T15:28:27;2.10;99.90
10123;DHT22;5101;49.038;8.710;2024-01-15T15:30:52;2.10;99.90
10123;DHT22;5101;49.038;8.710;2024-01-15T15:33:18;2.10;99.90
10123;DHT22;5101;49.038;8.710;2024-01-15T15:35:44;2.10;99.90
10123;DHT22;5101;49.038;8.710;2024-01-15T15:38:09;2.10;99.90
10123;DHT22;5101;49.038;8.710;2024-01-15T15:40:35;2.10;99.90
10123;DHT22;5101;49.038;8.710;2024-01-15T15:43:00;2.00;99.90
10123;DHT22;5101;49.038;8.710;2024-01-15T15:45:26;2.00;99.90
10123;DHT22;5101;49.038;8.710;2024-01-15T15:47:52;2.00;99.90
10123;DHT22;5101;49.038;8.710;2024-01-15T15:50:17;2.00;99.90
10123;DHT22;5101;49.038;8.710;2024-01-15T15:52:42;2.00;99.90
10123;DHT22;5101;49.038;8.710;2024-01-15T15:55:08;2.00;99.90
10123;DHT22;5101;49.038;8.710;2024-01-15T15:57:34;1.90;99.90
10123;DHT22;5101;49.038;8.710;2024-01-15T15:59:59;1.90;99.90